Time;durP1;ratioP1;P1;durP2;ratioP2;P2;SDS_P1;SDS_P2;PMS_P1;PMS_P2;Temp;Humidity;BMP_temperature;BMP_pressure;BME280_temperature;BME280_humidity;BME280_pressure;Samples;Min_cycle;Max_cycle;Signal;HPM_P1;HPM_P2
2022/09/13 00:01:06;;;;;;;21.63;11.45;;;;;;;;;;5022059;28;20053;-59
2022/09/13 00:03:33;;;;;;;23.17;11.35;;;;;;;;;;5021255;28;20084;-60
2022/09/13 00:06:06;;;;;;;22.17;11.40;;;;;;;;;;5021727;28;20100;-58
2022/09/13 00:08:32;;;;;;;23.05;12.25;;;;;;;;;;5021950;28;20041;-60
2022/09/13 00:10:58;;;;;;;19.83;12.13;;;;;;;;;;5022420;28;20048;-59
2022/09/13 00:13:25;;;;;;;21.38;12.30;;;;;;;;;;5022376;28;20041;-59
2022/09/13 00:15:51;;;;;;;20.30;12.75;;;;;;;;;;5022771;28;20103;-59
2022/09/13 00:18:18;;;;;;;19.95;12.57;;;;;;;;;;5025525;28;20049;-59
2022/09/13 00:20:45;;;;;;;21.20;13.18;;;;;;;;;;5025070;28;20092;-59
2022/09/13 00:23:11;;;;;;;22.70;13.43;;;;;;;;;;5026141;28;20510;-59
2022/09/13 00:25:38;;;;;;;26.08;14.13;;;;;;;;;;5025820;28;20045;-59
2022/09/13 00:28:04;;;;;;;21.58;13.68;;;;;;;;;;5025779;28;20041;-59
2022/09/13 00:30:30;;;;;;;22.65;13.25;;;;;;;;;;5026159;28;20041;-59
2022/09/13 00:32:57;;;;;;;20.20;12.40;;;;;;;;;;5025152;28;20468;-59
2022/09/13 00:35:23;;;;;;;24.90;13.20;;;;;;;;;;5025540;28;20442;-59
2022/09/13 00:37:49;;;;;;;20.33;12.70;;;;;;;;;;5025574;28;20045;-59
2022/09/13 00:40:16;;;;;;;20.70;13.27;;;;;;;;;;5025912;28;20091;-59
2022/09/13 00:42:42;;;;;;;23.80;13.77;;;;;;;;;;5025355;28;20042;-59
2022/09/13 00:45:11;;;;;;;27.30;15.18;;;;;;;;;;5025697;28;20037;-59
2022/09/13 00:47:55;;;;;;;23.27;13.88;;;;;;;;;;5025342;28;20041;-59
2022/09/13 00:50:25;;;;;;;22.85;13.57;;;;;;;;;;5025071;28;20037;-59
2022/09/13 00:52:55;;;;;;;25.67;14.45;;;;;;;;;;5025586;28;20045;-59
2022/09/13 00:55:24;;;;;;;23.80;13.70;;;;;;;;;;5025460;28;20045;-59
2022/09/13 00:57:50;;;;;;;23.85;14.10;;;;;;;;;;5025014;28;20037;-59
2022/09/13 01:00:18;;;;;;;26.23;14.43;;;;;;;;;;5024859;28;20107;-59
2022/09/13 01:02:46;;;;;;;28.23;14.73;;;;;;;;;;5023100;28;20045;-59
2022/09/13 01:05:12;;;;;;;;;;;;;;;;;;5025084;28;20045;-59
2022/09/13 01:07:39;;;;;;;27.58;14.40;;;;;;;;;;5024783;28;20007;-59
2022/09/13 01:10:06;;;;;;;24.73;14.95;;;;;;;;;;5047756;22;20497;-58
2022/09/13 01:12:42;;;;;;;31.05;16.48;;;;;;;;;;5031752;28;20045;-58
2022/09/13 01:15:08;;;;;;;25.13;14.70;;;;;;;;;;5038799;28;20041;-58
2022/09/13 01:17:34;;;;;;;28.10;15.18;;;;;;;;;;5025224;28;20072;-59
2022/09/13 01:20:01;;;;;;;27.08;15.30;;;;;;;;;;5038415;28;20107;-58
2022/09/13 01:22:35;;;;;;;32.17;16.23;;;;;;;;;;5025350;28;20052;-58
2022/09/13 01:25:10;;;;;;;28.52;14.60;;;;;;;;;;5025303;28;20041;-58
2022/09/13 01:27:51;;;;;;;31.08;15.80;;;;;;;;;;5036504;28;20037;-58
2022/09/13 01:30:19;;;;;;;28.08;16.23;;;;;;;;;;5037880;28;20052;-58
2022/09/13 01:32:57;;;;;;;30.37;16.50;;;;;;;;;;5023892;28;20175;-58
2022/09/13 01:35:23;;;;;;;;;;;;;;;;;;5024640;28;20038;-58
2022/09/13 01:37:53;;;;;;;28.95;15.90;;;;;;;;;;5024634;28;19921;-58
2022/09/13 01:40:28;;;;;;;29.25;16.48;;;;;;;;;;5024758;28;20060;-58
2022/09/13 01:42:54;;;;;;;26.00;16.65;;;;;;;;;;5024416;28;20049;-58
2022/09/13 01:45:41;;;;;;;29.58;17.45;;;;;;;;;;5038322;28;20044;-58
2022/09/13 01:48:13;;;;;;;30.90;17.30;;;;;;;;;;5023946;28;20053;-58
2022/09/13 01:50:42;;;;;;;28.08;16.77;;;;;;;;;;5037824;28;20038;-58
2022/09/13 01:53:09;;;;;;;31.55;18.15;;;;;;;;;;5024688;28;20042;-58
2022/09/13 01:55:40;;;;;;;34.78;18.30;;;;;;;;;;5024097;28;20843;-58
2022/09/13 01:58:19;;;;;;;37.72;18.25;;;;;;;;;;5038547;28;20087;-58
2022/09/13 02:00:45;;;;;;;;;;;;;;;;;;5023828;28;20574;-58
2022/09/13 02:03:20;;;;;;;32.45;18.65;;;;;;;;;;5023404;28;20396;-58
2022/09/13 02:05:51;;;;;;;33.28;18.80;;;;;;;;;;5023637;28;20052;-58
2022/09/13 02:08:20;;;;;;;36.42;19.27;;;;;;;;;;5023840;28;20402;-58
2022/09/13 02:10:50;;;;;;;34.40;19.45;;;;;;;;;;5023500;28;20830;-58
2022/09/13 02:13:19;;;;;;;33.05;19.27;;;;;;;;;;5024124;28;20048;-59
2022/09/13 02:15:47;;;;;;;36.83;19.63;;;;;;;;;;5023645;28;20041;-58
2022/09/13 02:18:14;;;;;;;37.75;21.42;;;;;;;;;;5030679;28;20052;-58
2022/09/13 02:20:43;;;;;;;34.47;19.15;;;;;;;;;;5027294;28;20056;-58
2022/09/13 02:23:12;;;;;;;34.28;19.02;;;;;;;;;;5023398;28;20486;-58
2022/09/13 02:25:39;;;;;;;40.15;20.95;;;;;;;;;;5023853;28;20052;-58
2022/09/13 02:28:06;;;;;;;35.67;20.55;;;;;;;;;;5023602;28;20038;-59
2022/09/13 02:30:34;;;;;;;33.77;19.43;;;;;;;;;;5023284;28;20660;-59
2022/09/13 02:33:04;;;;;;;35.50;19.98;;;;;;;;;;5021439;28;20454;-58
2022/09/13 02:35:38;;;;;;;32.83;18.20;;;;;;;;;;5023655;28;20475;-58
2022/09/13 02:38:08;;;;;;;33.65;18.63;;;;;;;;;;5022000;28;20502;-59
2022/09/13 02:40:39;;;;;;;36.13;19.10;;;;;;;;;;5023043;28;20049;-59
2022/09/13 02:43:08;;;;;;;37.58;19.63;;;;;;;;;;5042927;28;20077;-58
2022/09/13 02:45:41;;;;;;;32.97;18.23;;;;;;;;;;5038689;28;20045;-58
2022/09/13 02:48:10;;;;;;;35.55;19.42;;;;;;;;;;5026536;28;20052;-58
2022/09/13 02:50:43;;;;;;;36.90;19.13;;;;;;;;;;5035408;28;20683;-58
2022/09/13 02:53:30;;;;;;;32.60;17.80;;;;;;;;;;5038604;28;20052;-58
2022/09/13 02:56:19;;;;;;;29.92;17.65;;;;;;;;;;5042574;28;20722;-58
2022/09/13 02:58:56;;;;;;;32.17;17.17;;;;;;;;;;5041325;28;20483;-58
2022/09/13 03:01:22;;;;;;;33.33;17.70;;;;;;;;;;5041653;28;20153;-58
2022/09/13 03:03:48;;;;;;;27.73;17.00;;;;;;;;;;5022232;28;20136;-58
2022/09/13 03:06:25;;;;;;;29.63;16.75;;;;;;;;;;5022963;28;20077;-58
2022/09/13 03:08:52;;;;;;;30.15;16.02;;;;;;;;;;5041820;28;20124;-58
2022/09/13 03:11:19;;;;;;;26.88;15.98;;;;;;;;;;5030434;28;20704;-58
2022/09/13 03:13:54;;;;;;;27.38;16.02;;;;;;;;;;5022431;28;20045;-58
2022/09/13 03:16:39;;;;;;;27.60;16.02;;;;;;;;;;5022755;28;20048;-58
2022/09/13 03:19:20;;;;;;;34.83;16.05;;;;;;;;;;5035680;28;20538;-58
2022/09/13 03:21:55;;;;;;;26.17;15.18;;;;;;;;;;5021612;28;20049;-58
2022/09/13 03:24:25;;;;;;;27.23;14.43;;;;;;;;;;5022643;28;20037;-58
2022/09/13 03:27:03;;;;;;;24.13;14.27;;;;;;;;;;5035592;28;20049;-58
2022/09/13 03:29:47;;;;;;;25.92;14.32;;;;;;;;;;5035875;28;20470;-58
2022/09/13 03:32:18;;;;;;;27.83;14.75;;;;;;;;;;5022330;28;20099;-59
2022/09/13 03:34:50;;;;;;;24.27;14.40;;;;;;;;;;5022242;28;20566;-58
2022/09/13 03:37:23;;;;;;;28.83;13.88;;;;;;;;;;5022205;28;20124;-58
2022/09/13 03:39:53;;;;;;;25.98;13.73;;;;;;;;;;5021758;28;20128;-58
2022/09/13 03:42:30;;;;;;;27.67;13.90;;;;;;;;;;5021816;28;20059;-58
2022/09/13 03:44:56;;;;;;;22.98;11.88;;;;;;;;;;5022198;28;20502;-58
2022/09/13 03:47:24;;;;;;;21.88;12.23;;;;;;;;;;5034587;28;20127;-58
2022/09/13 03:49:51;;;;;;;22.13;13.18;;;;;;;;;;5021585;28;20041;-58
2022/09/13 03:52:18;;;;;;;23.63;12.57;;;;;;;;;;5021303;28;20053;-58
2022/09/13 03:54:44;;;;;;;20.00;11.90;;;;;;;;;;5021591;28;20072;-58
2022/09/13 03:57:19;;;;;;;25.67;12.80;;;;;;;;;;5022223;28;20037;-58
2022/09/13 03:59:47;;;;;;;16.95;9.95;;;;;;;;;;5024975;28;20888;-58
2022/09/13 04:02:14;;;;;;;23.33;12.77;;;;;;;;;;5031837;28;20099;-58
2022/09/13 04:04:40;;;;;;;22.25;11.80;;;;;;;;;;5021571;28;20096;-58
2022/09/13 04:07:07;;;;;;;23.33;12.18;;;;;;;;;;5021560;28;20107;-58
2022/09/13 04:09:33;;;;;;;22.85;11.02;;;;;;;;;;5021746;28;20107;-59
2022/09/13 04:12:00;;;;;;;22.30;11.45;;;;;;;;;;5022496;28;20131;-58
2022/09/13 04:14:27;;;;;;;18.17;10.63;;;;;;;;;;5022018;28;20610;-58
2022/09/13 04:16:54;;;;;;;18.70;10.27;;;;;;;;;;5021580;28;20117;-58
2022/09/13 04:19:20;;;;;;;18.40;9.90;;;;;;;;;;5021016;28;20519;-58
2022/09/13 04:21:48;;;;;;;18.20;11.13;;;;;;;;;;5020475;28;20052;-58
2022/09/13 04:24:14;;;;;;;22.38;10.73;;;;;;;;;;5020962;28;20045;-58
2022/09/13 04:26:40;;;;;;;18.15;10.85;;;;;;;;;;5021369;28;20041;-58
2022/09/13 04:29:06;;;;;;;19.05;11.48;;;;;;;;;;5021812;28;20227;-58
2022/09/13 04:31:33;;;;;;;18.45;10.52;;;;;;;;;;5021720;28;20041;-58
2022/09/13 04:33:59;;;;;;;17.45;10.18;;;;;;;;;;5021251;28;20072;-58
2022/09/13 04:36:26;;;;;;;19.10;11.15;;;;;;;;;;5020971;28;20037;-58
2022/09/13 04:38:52;;;;;;;15.65;9.60;;;;;;;;;;5021197;28;20579;-58
2022/09/13 04:41:18;;;;;;;17.75;10.10;;;;;;;;;;5021855;28;20414;-58
2022/09/13 04:43:49;;;;;;;19.05;10.18;;;;;;;;;;5021510;28;20530;-58
2022/09/13 04:46:15;;;;;;;16.67;9.88;;;;;;;;;;5021648;28;20602;-58
2022/09/13 04:48:41;;;;;;;18.20;10.48;;;;;;;;;;5020608;28;20058;-58
2022/09/13 04:51:08;;;;;;;28.60;10.65;;;;;;;;;;5020597;28;20034;-58
2022/09/13 04:53:34;;;;;;;16.50;9.05;;;;;;;;;;5021697;28;20045;-59
2022/09/13 04:56:01;;;;;;;17.63;9.52;;;;;;;;;;5022105;28;20073;-58
2022/09/13 04:58:27;;;;;;;13.85;7.95;;;;;;;;;;5021770;28;20497;-58
2022/09/13 05:00:55;;;;;;;13.13;7.97;;;;;;;;;;5033354;28;20065;-58
2022/09/13 05:03:22;;;;;;;15.30;9.00;;;;;;;;;;5041734;28;20142;-58
2022/09/13 05:05:48;;;;;;;12.57;8.32;;;;;;;;;;5044460;28;20159;-57
2022/09/13 05:08:14;;;;;;;17.70;9.32;;;;;;;;;;5044476;28;20029;-60
2022/09/13 05:10:40;;;;;;;17.67;9.23;;;;;;;;;;5044191;28;20052;-60
2022/09/13 05:13:07;;;;;;;18.80;9.00;;;;;;;;;;5044617;28;20057;-60
2022/09/13 05:15:33;;;;;;;15.25;8.98;;;;;;;;;;5044375;28;20056;-60
2022/09/13 05:17:59;;;;;;;14.13;8.18;;;;;;;;;;5043822;28;20099;-60
2022/09/13 05:20:25;;;;;;;13.98;8.75;;;;;;;;;;5043087;28;20707;-60
2022/09/13 05:22:51;;;;;;;15.18;8.80;;;;;;;;;;5043940;28;20094;-60
2022/09/13 05:25:17;;;;;;;17.33;8.55;;;;;;;;;;5044272;28;20052;-60
2022/09/13 05:27:45;;;;;;;16.10;8.52;;;;;;;;;;5043408;28;20775;-60
2022/09/13 05:30:11;;;;;;;12.93;8.60;;;;;;;;;;5044590;28;20072;-60
2022/09/13 05:32:37;;;;;;;15.25;8.13;;;;;;;;;;5043403;28;20048;-61
2022/09/13 05:35:04;;;;;;;17.00;8.38;;;;;;;;;;5044733;28;20128;-61
2022/09/13 05:37:30;;;;;;;15.45;8.40;;;;;;;;;;5044090;28;20045;-60
2022/09/13 05:39:56;;;;;;;16.23;8.10;;;;;;;;;;5043452;28;20071;-61
2022/09/13 05:42:22;;;;;;;12.60;7.72;;;;;;;;;;5044273;28;20041;-60
2022/09/13 05:44:48;;;;;;;14.02;8.10;;;;;;;;;;5040465;28;20052;-60
2022/09/13 05:47:14;;;;;;;13.63;7.45;;;;;;;;;;5042014;28;21078;-60
2022/09/13 05:49:41;;;;;;;12.52;7.07;;;;;;;;;;5029478;28;20059;-60
2022/09/13 05:52:07;;;;;;;14.55;7.25;;;;;;;;;;5028756;28;20045;-60
2022/09/13 05:54:33;;;;;;;12.73;6.20;;;;;;;;;;5026524;28;20037;-60
2022/09/13 05:56:59;;;;;;;11.10;5.75;;;;;;;;;;5027487;28;20051;-61
2022/09/13 05:59:25;;;;;;;9.23;4.65;;;;;;;;;;5029731;28;20072;-61
2022/09/13 06:01:51;;;;;;;9.38;4.53;;;;;;;;;;5030058;28;20049;-61
2022/09/13 06:04:18;;;;;;;12.65;3.88;;;;;;;;;;5027336;28;20048;-61
2022/09/13 06:06:44;;;;;;;8.93;3.08;;;;;;;;;;5025343;28;20049;-60
2022/09/13 06:09:10;;;;;;;7.63;3.38;;;;;;;;;;5041994;28;20482;-60
2022/09/13 06:11:36;;;;;;;8.63;3.17;;;;;;;;;;5041883;28;20057;-59
2022/09/13 06:14:03;;;;;;;11.32;2.67;;;;;;;;;;5042998;28;20045;-59
2022/09/13 06:16:29;;;;;;;9.30;2.90;;;;;;;;;;5042331;28;20601;-59
2022/09/13 06:18:55;;;;;;;4.50;2.33;;;;;;;;;;5042777;28;20120;-59
2022/09/13 06:21:22;;;;;;;6.78;2.30;;;;;;;;;;5042032;28;20144;-59
2022/09/13 06:23:49;;;;;;;5.32;2.05;;;;;;;;;;5042854;28;20056;-59
2022/09/13 06:26:17;;;;;;;3.90;1.83;;;;;;;;;;5043563;28;20040;-59
2022/09/13 06:28:47;;;;;;;5.22;2.05;;;;;;;;;;5042984;28;20048;-59
2022/09/13 06:31:14;;;;;;;9.32;2.30;;;;;;;;;;5042055;28;20052;-59
2022/09/13 06:33:41;;;;;;;5.17;2.03;;;;;;;;;;5042412;28;20486;-59
2022/09/13 06:36:08;;;;;;;4.78;1.80;;;;;;;;;;5041572;28;20529;-59
2022/09/13 06:38:35;;;;;;;3.10;1.80;;;;;;;;;;5041795;28;20486;-59
2022/09/13 06:41:03;;;;;;;4.53;1.42;;;;;;;;;;5043629;28;20052;-59
2022/09/13 06:43:29;;;;;;;6.65;1.98;;;;;;;;;;5043253;28;20131;-59
2022/09/13 06:46:01;;;;;;;6.40;1.88;;;;;;;;;;5042821;28;20091;-59
2022/09/13 06:48:30;;;;;;;3.25;1.50;;;;;;;;;;5042995;28;20041;-59
2022/09/13 06:50:57;;;;;;;7.20;1.55;;;;;;;;;;5041986;28;20098;-59
2022/09/13 06:53:23;;;;;;;9.45;1.85;;;;;;;;;;5043198;28;20092;-59
2022/09/13 06:55:59;;;;;;;11.18;1.73;;;;;;;;;;5042388;28;20411;-59
2022/09/13 06:58:26;;;;;;;7.57;1.85;;;;;;;;;;5043144;28;20049;-59
2022/09/13 07:00:53;;;;;;;5.13;1.58;;;;;;;;;;5042618;28;20048;-58
2022/09/13 07:03:19;;;;;;;4.28;1.70;;;;;;;;;;5022748;28;20045;-58
2022/09/13 07:05:45;;;;;;;5.40;1.20;;;;;;;;;;5022687;28;20049;-58
2022/09/13 07:08:11;;;;;;;4.18;1.50;;;;;;;;;;5022772;28;20049;-58
2022/09/13 07:10:37;;;;;;;5.68;1.52;;;;;;;;;;5022319;28;20041;-59
2022/09/13 07:13:03;;;;;;;4.70;1.33;;;;;;;;;;5022889;28;20045;-59
2022/09/13 07:15:30;;;;;;;5.38;1.75;;;;;;;;;;5023259;28;20044;-58
2022/09/13 07:17:56;;;;;;;5.50;1.15;;;;;;;;;;5021338;28;20117;-58
2022/09/13 07:20:22;;;;;;;18.08;2.30;;;;;;;;;;5022447;28;20042;-58
2022/09/13 07:22:48;;;;;;;5.03;1.95;;;;;;;;;;5022506;28;20037;-58
2022/09/13 07:25:14;;;;;;;6.75;1.63;;;;;;;;;;5020414;28;20042;-58
2022/09/13 07:27:40;;;;;;;9.48;2.08;;;;;;;;;;5022354;28;20522;-58
2022/09/13 07:30:07;;;;;;;2.67;1.42;;;;;;;;;;5022552;28;20487;-58
2022/09/13 07:32:33;;;;;;;9.73;1.88;;;;;;;;;;5021562;28;20051;-59
2022/09/13 07:34:59;;;;;;;6.75;1.83;;;;;;;;;;5022535;28;20037;-58
2022/09/13 07:37:26;;;;;;;14.32;2.22;;;;;;;;;;5022305;28;20124;-58
2022/09/13 07:39:52;;;;;;;3.13;1.50;;;;;;;;;;5022155;28;20045;-58
2022/09/13 07:42:18;;;;;;;5.57;1.13;;;;;;;;;;5022413;28;20049;-59
2022/09/13 07:44:45;;;;;;;9.90;1.60;;;;;;;;;;5022195;28;20046;-58
2022/09/13 07:47:11;;;;;;;9.77;1.58;;;;;;;;;;5021521;28;20171;-58
2022/09/13 07:49:37;;;;;;;9.57;1.70;;;;;;;;;;5020782;28;20037;-58
2022/09/13 07:52:03;;;;;;;5.90;1.20;;;;;;;;;;5022538;28;20045;-59
2022/09/13 07:54:29;;;;;;;6.30;1.60;;;;;;;;;;5022321;28;20041;-58
2022/09/13 07:56:55;;;;;;;11.25;2.05;;;;;;;;;;5022077;28;20086;-58
2022/09/13 07:59:22;;;;;;;7.30;1.63;;;;;;;;;;5022387;28;20119;-58
2022/09/13 08:01:49;;;;;;;4.10;1.33;;;;;;;;;;5035010;28;20046;-58
2022/09/13 08:04:17;;;;;;;9.98;1.10;;;;;;;;;;5021676;28;20052;-58
2022/09/13 08:06:43;;;;;;;4.65;0.70;;;;;;;;;;5020666;28;20120;-58
2022/09/13 08:09:10;;;;;;;6.45;0.80;;;;;;;;;;5022188;28;20051;-59
2022/09/13 08:11:37;;;;;;;3.83;0.85;;;;;;;;;;5021793;28;20050;-59
2022/09/13 08:14:04;;;;;;;2.08;0.50;;;;;;;;;;5022104;28;20045;-59
2022/09/13 08:16:30;;;;;;;4.82;0.80;;;;;;;;;;5021569;28;20049;-58
2022/09/13 08:19:00;;;;;;;5.03;0.60;;;;;;;;;;5021202;28;20132;-59
2022/09/13 08:21:26;;;;;;;5.20;0.88;;;;;;;;;;5021835;28;20056;-58
2022/09/13 08:23:55;;;;;;;11.38;1.02;;;;;;;;;;5021636;28;20049;-58
2022/09/13 08:26:21;;;;;;;;;;;;;;;;;;5022472;28;20125;-59
2022/09/13 08:28:47;;;;;;;3.35;0.80;;;;;;;;;;5021489;28;20008;-58
2022/09/13 08:31:16;;;;;;;2.70;0.60;;;;;;;;;;5022050;28;20119;-58
2022/09/13 08:33:44;;;;;;;1.30;0.50;;;;;;;;;;5020097;28;20586;-58
2022/09/13 08:36:10;;;;;;;2.30;0.60;;;;;;;;;;5021721;28;20491;-58
2022/09/13 08:38:36;;;;;;;3.83;0.70;;;;;;;;;;5025302;28;20491;-58
2022/09/13 08:41:04;;;;;;;16.77;2.05;;;;;;;;;;5026052;28;20674;-59
2022/09/13 08:43:32;;;;;;;5.72;0.82;;;;;;;;;;5025896;28;20732;-58
2022/09/13 08:46:03;;;;;;;3.72;0.70;;;;;;;;;;5025980;28;20045;-58
2022/09/13 08:48:33;;;;;;;4.22;0.55;;;;;;;;;;5024563;28;20422;-59
2022/09/13 08:51:01;;;;;;;5.50;0.63;;;;;;;;;;5025507;28;20064;-58
2022/09/13 08:53:28;;;;;;;4.55;0.65;;;;;;;;;;5026009;28;20053;-58
2022/09/13 08:56:12;;;;;;;2.43;0.60;;;;;;;;;;5025263;28;20034;-58
2022/09/13 08:58:50;;;;;;;2.67;0.45;;;;;;;;;;5024680;28;20160;-59
2022/09/13 09:01:24;;;;;;;2.60;1.10;;;;;;;;;;5039206;28;20049;-59
2022/09/13 09:03:57;;;;;;;1.70;0.70;;;;;;;;;;5025084;28;20124;-58
2022/09/13 09:06:23;;;;;;;5.28;0.60;;;;;;;;;;5024997;28;20045;-58
2022/09/13 09:08:53;;;;;;;4.10;0.60;;;;;;;;;;5024699;28;20111;-59
2022/09/13 09:11:23;;;;;;;9.25;1.35;;;;;;;;;;5024689;28;20569;-58
2022/09/13 09:13:52;;;;;;;18.48;0.95;;;;;;;;;;5024909;28;20328;-59
2022/09/13 09:16:30;;;;;;;4.43;0.57;;;;;;;;;;5024707;28;20049;-60
2022/09/13 09:19:06;;;;;;;4.03;0.57;;;;;;;;;;5023834;28;20603;-59
2022/09/13 09:21:32;;;;;;;3.92;0.43;;;;;;;;;;5024536;28;20091;-60
2022/09/13 09:24:00;;;;;;;5.57;0.70;;;;;;;;;;5025110;28;20060;-58
2022/09/13 09:26:29;;;;;;;5.45;0.40;;;;;;;;;;5025167;28;20088;-58
2022/09/13 09:29:10;;;;;;;6.22;0.50;;;;;;;;;;5024573;28;20076;-58
2022/09/13 09:31:44;;;;;;;3.35;0.95;;;;;;;;;;5024005;28;20349;-59
2022/09/13 09:34:27;;;;;;;1.67;0.40;;;;;;;;;;5024984;28;20043;-59
2022/09/13 09:37:01;;;;;;;2.97;0.38;;;;;;;;;;5024432;28;20052;-58
2022/09/13 09:39:32;;;;;;;7.32;0.55;;;;;;;;;;5024957;28;20084;-58
2022/09/13 09:41:58;;;;;;;7.15;0.55;;;;;;;;;;5024833;28;20053;-59
2022/09/13 09:44:26;;;;;;;2.40;0.50;;;;;;;;;;5024415;28;20077;-58
2022/09/13 09:47:05;;;;;;;8.73;0.70;;;;;;;;;;5023307;28;20426;-58
2022/09/13 09:52:30;;;;;;;5.50;0.50;;;;;;;;;;5024503;28;20053;-59
2022/09/13 09:54:59;;;;;;;2.72;0.30;;;;;;;;;;5024041;28;20049;-58
2022/09/13 09:57:44;;;;;;;5.35;0.40;;;;;;;;;;5023848;28;20427;-59
2022/09/13 10:00:11;;;;;;;1.52;0.40;;;;;;;;;;5030883;28;20551;-59
2022/09/13 10:02:43;;;;;;;1.25;0.30;;;;;;;;;;5030354;28;20045;-59
2022/09/13 10:05:11;;;;;;;2.38;0.40;;;;;;;;;;5023834;28;20100;-58
2022/09/13 10:07:38;;;;;;;3.92;0.60;;;;;;;;;;5023588;28;20106;-58
2022/09/13 10:10:07;;;;;;;1.63;0.30;;;;;;;;;;5023929;28;20045;-59
2022/09/13 10:12:36;;;;;;;9.45;0.70;;;;;;;;;;5023895;28;20097;-59
2022/09/13 10:15:05;;;;;;;7.45;0.50;;;;;;;;;;5023857;28;20086;-59
2022/09/13 10:17:31;;;;;;;1.83;0.32;;;;;;;;;;5023624;28;20041;-58
2022/09/13 10:19:58;;;;;;;4.60;0.65;;;;;;;;;;5037685;28;20041;-58
2022/09/13 10:22:25;;;;;;;5.30;0.50;;;;;;;;;;5041039;28;20048;-58
2022/09/13 10:24:52;;;;;;;0.75;0.20;;;;;;;;;;5043072;28;20040;-58
2022/09/13 10:27:31;;;;;;;4.47;0.60;;;;;;;;;;5043057;28;20506;-58
2022/09/13 10:29:58;;;;;;;;;;;;;;;;;;5038153;28;20291;-58
2022/09/13 10:32:25;;;;;;;1.92;0.40;;;;;;;;;;5037509;28;20491;-59
2022/09/13 10:34:51;;;;;;;4.90;0.50;;;;;;;;;;5039301;28;20592;-60
2022/09/13 10:37:21;;;;;;;2.92;0.50;;;;;;;;;;5040224;28;20468;-59
2022/09/13 10:39:51;;;;;;;6.75;0.47;;;;;;;;;;5040091;28;20052;-59
2022/09/13 10:42:19;;;;;;;2.70;0.30;;;;;;;;;;5039782;28;20049;-59
2022/09/13 10:44:46;;;;;;;;;;;;;;;;;;5040134;28;20057;-59
2022/09/13 10:47:14;;;;;;;4.35;0.50;;;;;;;;;;5039350;28;19921;-59
2022/09/13 10:49:43;;;;;;;4.80;0.40;;;;;;;;;;5039660;28;20564;-59
2022/09/13 10:52:23;;;;;;;4.13;0.40;;;;;;;;;;5040830;28;20041;-59
2022/09/13 10:54:49;;;;;;;1.70;0.40;;;;;;;;;;5040645;28;20048;-59
2022/09/13 10:57:28;;;;;;;4.20;0.30;;;;;;;;;;5039951;28;20063;-59
2022/09/13 10:59:54;;;;;;;4.38;0.40;;;;;;;;;;5039928;28;20049;-59
2022/09/13 11:02:21;;;;;;;5.10;0.50;;;;;;;;;;5029166;28;20132;-59
2022/09/13 11:05:00;;;;;;;3.22;0.40;;;;;;;;;;5035872;28;20081;-59
2022/09/13 11:07:31;;;;;;;2.75;0.40;;;;;;;;;;5037801;28;20087;-59
2022/09/13 11:10:04;;;;;;;18.15;0.88;;;;;;;;;;5039274;28;20118;-59
2022/09/13 11:12:35;;;;;;;5.97;0.50;;;;;;;;;;5038614;28;20044;-59
2022/09/13 11:15:05;;;;;;;2.13;0.40;;;;;;;;;;5040691;28;20201;-58
2022/09/13 11:17:44;;;;;;;3.45;0.45;;;;;;;;;;5028992;28;20068;-59
2022/09/13 11:20:15;;;;;;;2.25;0.20;;;;;;;;;;5039414;28;20037;-59
2022/09/13 11:22:59;;;;;;;1.40;0.20;;;;;;;;;;5030049;28;20041;-59
2022/09/13 11:25:31;;;;;;;5.78;0.40;;;;;;;;;;5040125;28;20071;-59
2022/09/13 11:28:02;;;;;;;7.93;4.43;;;;;;;;;;5040152;28;20490;-59
2022/09/13 11:30:30;;;;;;;3.80;0.73;;;;;;;;;;5036709;28;20101;-59
2022/09/13 11:33:02;;;;;;;6.50;0.45;;;;;;;;;;5035356;28;20040;-59
2022/09/13 11:35:35;;;;;;;7.43;0.63;;;;;;;;;;5039726;28;20044;-59
2022/09/13 11:38:15;;;;;;;7.47;0.50;;;;;;;;;;5034346;28;20051;-59
2022/09/13 11:40:51;;;;;;;4.05;0.40;;;;;;;;;;5038802;28;20049;-60
2022/09/13 11:43:36;;;;;;;2.85;0.30;;;;;;;;;;5033118;28;20053;-59
2022/09/13 11:46:19;;;;;;;5.50;1.17;;;;;;;;;;5028773;28;20102;-60
2022/09/13 11:48:45;;;;;;;6.53;0.65;;;;;;;;;;5041770;28;20067;-59
2022/09/13 11:51:11;;;;;;;5.45;0.65;;;;;;;;;;5041725;28;20091;-59
2022/09/13 11:53:56;;;;;;;6.72;0.50;;;;;;;;;;5041827;28;20914;-60
2022/09/13 11:56:33;;;;;;;3.80;0.50;;;;;;;;;;5042199;28;20530;-59
2022/09/13 11:59:05;;;;;;;3.08;0.70;;;;;;;;;;5042318;28;20110;-59
2022/09/13 12:01:36;;;;;;;2.22;0.40;;;;;;;;;;5037796;28;20029;-59
2022/09/13 12:04:04;;;;;;;6.65;0.65;;;;;;;;;;5021518;28;20042;-60
2022/09/13 12:06:35;;;;;;;4.43;0.40;;;;;;;;;;5022275;28;20125;-59
2022/09/13 12:09:04;;;;;;;3.25;0.70;;;;;;;;;;5022438;28;20100;-59
2022/09/13 12:11:35;;;;;;;5.05;0.40;;;;;;;;;;5022678;28;20045;-59
2022/09/13 12:14:04;;;;;;;6.75;0.50;;;;;;;;;;5026565;28;20503;-59
2022/09/13 12:16:30;;;;;;;4.50;0.45;;;;;;;;;;5023635;28;20400;-60
2022/09/13 12:18:59;;;;;;;3.45;0.55;;;;;;;;;;5026096;28;20175;-59
2022/09/13 12:21:28;;;;;;;6.18;0.60;;;;;;;;;;5026090;28;20049;-59
2022/09/13 12:24:00;;;;;;;2.88;0.40;;;;;;;;;;5025662;28;20514;-59
2022/09/13 12:26:26;;;;;;;4.43;0.43;;;;;;;;;;5037399;28;20247;-60
2022/09/13 12:28:55;;;;;;;1.70;0.28;;;;;;;;;;5038175;28;20061;-60
2022/09/13 12:31:23;;;;;;;6.65;0.50;;;;;;;;;;5024160;28;20060;-60
2022/09/13 12:33:50;;;;;;;6.60;0.60;;;;;;;;;;5029336;28;20038;-60
2022/09/13 12:36:17;;;;;;;4.93;0.40;;;;;;;;;;5030450;28;20681;-60
2022/09/13 12:38:57;;;;;;;5.78;0.73;;;;;;;;;;5028121;28;20034;-60
2022/09/13 12:41:30;;;;;;;5.18;0.43;;;;;;;;;;5030708;28;20053;-60
2022/09/13 12:44:01;;;;;;;3.35;0.50;;;;;;;;;;5030350;28;20045;-60
2022/09/13 12:46:36;;;;;;;3.65;0.65;;;;;;;;;;5027941;28;20037;-59
2022/09/13 12:49:05;;;;;;;2.00;0.40;;;;;;;;;;5035302;28;20049;-60
2022/09/13 12:51:40;;;;;;;6.10;0.38;;;;;;;;;;5030677;28;20038;-60
2022/09/13 12:54:08;;;;;;;4.68;0.60;;;;;;;;;;5028510;28;20048;-60
2022/09/13 12:56:41;;;;;;;3.20;0.47;;;;;;;;;;5028152;28;20080;-60
2022/09/13 12:59:08;;;;;;;4.85;0.43;;;;;;;;;;5041660;28;20809;-60
2022/09/13 13:01:35;;;;;;;6.65;0.60;;;;;;;;;;5034330;28;20470;-60
2022/09/13 13:04:09;;;;;;;6.53;0.60;;;;;;;;;;5036984;28;20041;-60
2022/09/13 13:06:35;;;;;;;5.65;0.40;;;;;;;;;;5044177;28;20033;-60
2022/09/13 13:09:07;;;;;;;3.78;0.50;;;;;;;;;;5044356;28;20048;-60
2022/09/13 13:11:42;;;;;;;7.10;0.52;;;;;;;;;;5044536;28;20041;-60
2022/09/13 13:14:22;;;;;;;7.22;0.60;;;;;;;;;;5044804;28;20067;-60
2022/09/13 13:16:48;;;;;;;4.13;0.57;;;;;;;;;;5041816;28;20048;-60
2022/09/13 13:19:29;;;;;;;5.72;0.40;;;;;;;;;;5039523;28;20085;-59
2022/09/13 13:22:16;;;;;;;4.63;0.40;;;;;;;;;;5038825;28;20443;-59
2022/09/13 13:24:46;;;;;;;6.72;0.52;;;;;;;;;;5040639;28;20045;-59
2022/09/13 13:27:32;;;;;;;2.40;0.45;;;;;;;;;;5043440;28;20040;-62
2022/09/13 13:30:24;;;;;;;4.68;0.60;;;;;;;;;;5043676;28;20119;-61
2022/09/13 13:33:04;;;;;;;4.75;0.50;;;;;;;;;;5035449;28;20406;-62
2022/09/13 13:35:31;;;;;;;4.47;0.55;;;;;;;;;;5031766;28;20094;-60
2022/09/13 13:38:14;;;;;;;2.92;0.47;;;;;;;;;;5028930;28;20168;-62
2022/09/13 13:40:40;;;;;;;6.40;0.50;;;;;;;;;;5027302;28;20715;-61
2022/09/13 13:43:16;;;;;;;3.90;0.30;;;;;;;;;;5028339;28;20127;-61
2022/09/13 13:45:58;;;;;;;6.30;0.45;;;;;;;;;;5040718;28;20052;-61
2022/09/13 13:48:38;;;;;;;2.97;0.32;;;;;;;;;;5042623;28;20041;-60
2022/09/13 13:51:10;;;;;;;2.83;0.30;;;;;;;;;;5042044;28;20045;-61
2022/09/13 13:53:37;;;;;;;6.68;0.70;;;;;;;;;;5041619;28;20036;-61
2022/09/13 13:56:07;;;;;;;4.05;0.47;;;;;;;;;;5042928;28;20694;-61
2022/09/13 13:58:45;;;;;;;3.20;0.40;;;;;;;;;;5041880;28;20041;-61
2022/09/13 14:01:16;;;;;;;4.30;0.50;;;;;;;;;;5041310;28;20630;-61
2022/09/13 14:03:42;;;;;;;3.50;0.55;;;;;;;;;;5040061;28;20041;-61
2022/09/13 14:06:12;;;;;;;5.35;0.68;;;;;;;;;;5042312;28;20057;-61
2022/09/13 14:08:58;;;;;;;3.60;0.50;;;;;;;;;;5037555;28;20551;-61
2022/09/13 14:11:40;;;;;;;10.30;0.82;;;;;;;;;;5040581;28;20048;-61
2022/09/13 14:14:16;;;;;;;9.15;0.82;;;;;;;;;;5039570;28;20045;-61
2022/09/13 14:17:01;;;;;;;8.43;0.70;;;;;;;;;;5040011;28;20045;-61
2022/09/13 14:19:30;;;;;;;8.95;0.68;;;;;;;;;;5040159;28;20040;-61
2022/09/13 14:22:06;;;;;;;4.97;0.50;;;;;;;;;;5039179;28;20095;-60
2022/09/13 14:24:37;;;;;;;3.78;0.60;;;;;;;;;;5038960;28;20073;-61
2022/09/13 14:27:03;;;;;;;4.57;0.77;;;;;;;;;;5038974;28;20491;-61
2022/09/13 14:29:29;;;;;;;4.50;0.70;;;;;;;;;;5043113;28;20088;-61
2022/09/13 14:32:02;;;;;;;6.53;0.60;;;;;;;;;;5039432;28;20037;-61
2022/09/13 14:34:30;;;;;;;4.40;0.60;;;;;;;;;;5042645;28;20037;-60
2022/09/13 14:36:57;;;;;;;5.93;0.80;;;;;;;;;;5038077;28;20033;-61
2022/09/13 14:39:24;;;;;;;6.53;0.70;;;;;;;;;;5041548;28;20126;-61
2022/09/13 14:41:59;;;;;;;11.15;0.90;;;;;;;;;;5038293;28;20041;-61
2022/09/13 14:44:26;;;;;;;3.58;0.70;;;;;;;;;;5040107;28;20609;-61
2022/09/13 14:46:55;;;;;;;5.30;0.65;;;;;;;;;;5041581;28;20049;-61
2022/09/13 14:49:24;;;;;;;8.25;1.45;;;;;;;;;;5036142;28;20474;-61
2022/09/13 14:51:55;;;;;;;8.25;0.70;;;;;;;;;;5042049;28;20075;-61
2022/09/13 14:54:28;;;;;;;7.35;0.80;;;;;;;;;;5036647;28;20041;-61